Overview Statistics Trail Chart Weather Telemetry Raw packets
 

This is the latest recevied weather packets stored in our database for station/object OE5RBO. If no packets are shown the sender has not sent any weather packets the latest 10 day(s).

<< 3 4 5 6 7 8 9 >>
Time Temp. Humidity Pressure Rain* Wind** Luminosity Snow
1788581184 20° C 77% 1018.8 hPa 0 mm - - -
1788580584 20.56° C 77% 1018.7 hPa 0 mm - - -
1788579983 20.56° C 76% 1018.5 hPa 0 mm - - -
1788579383 21.67° C 75% 1018.1 hPa 0 mm - - -
1788578782 22.78° C 73% 1017.4 hPa 0 mm - - -
1788578182 22.78° C 72% 1017.5 hPa 0 mm - - -
1788577582 22.78° C 71% 1017.5 hPa 0 mm - - -
1788576981 22.78° C 70% 1017.3 hPa 0 mm - - -
1788575780 23.33° C 69% 1017.2 hPa 0 mm - - -
1788575180 23.33° C 68% 1017.1 hPa 0 mm - - -
1788574580 23.33° C 68% 1017.2 hPa 0 mm - - -
1788573979 23.33° C 68% 1017.1 hPa 0 mm - - -
1788573379 23.33° C 67% 1017 hPa 0 mm - - -
1788572779 23.33° C 67% 1017 hPa 0 mm - - -
1788572178 23.89° C 65% 1017 hPa 0 mm - - -
1788571578 23.89° C 65% 1016.9 hPa 0 mm - - -
1788570978 23.89° C 64% 1017 hPa 0 mm - - -
1788570377 24.44° C 63% 1017 hPa 0 mm - - -
1788569777 24.44° C 63% 1016.9 hPa 0 mm - - -
1788569176 24.44° C 62% 1016.8 hPa 0 mm - - -
1788568576 24.44° C 62% 1016.7 hPa 0 mm - - -
1788567976 24.44° C 61% 1016.6 hPa 0 mm - - -
1788567376 24.44° C 61% 1016.6 hPa 0 mm - - -
1788566775 25° C 60% 1016.5 hPa 0 mm - - -
1788566175 25° C 59% 1016.5 hPa 0 mm - - -

* Rain since midnight (hover to see other rain measurements)
** Current wind speed in m/s (hover to see current wind gust speed)